Time;durP1;ratioP1;P1;durP2;ratioP2;P2;SDS_P1;SDS_P2;PMS_P1;PMS_P2;Temp;Humidity;BMP_temperature;BMP_pressure;BME280_temperature;BME280_humidity;BME280_pressure;Samples;Min_cycle;Max_cycle;Signal;HPM_P1;HPM_P2
2023/12/19 00:01:00;;;;;;;2.80;2.60;;;;;;;20.40;38.85;100118.08;104759;1255;72668;-65
2023/12/19 00:03:28;;;;;;;;;;;;;;;20.69;38.48;100122.71;104992;1253;60622;-64
2023/12/19 00:05:56;;;;;;;2.60;2.40;;;;;;;20.77;38.37;100120.84;105424;1253;60481;-63
2023/12/19 00:08:24;;;;;;;3.00;2.60;;;;;;;20.68;38.41;100118.69;104690;1251;75736;-62
2023/12/19 00:10:51;;;;;;;;;;;;;;;20.25;39.06;100117.67;105183;1257;71232;-64
2023/12/19 00:13:19;;;;;;;;;;;;;;;20.24;39.13;100113.64;105011;1253;72431;-63
2023/12/19 00:15:47;;;;;;;;;;;;;;;20.58;38.60;100106.77;104895;1256;61438;-63
2023/12/19 00:18:15;;;;;;;3.90;2.50;;;;;;;20.31;39.06;100100.97;104787;1252;61804;-64
2023/12/19 00:20:42;;;;;;;2.90;2.10;;;;;;;20.44;38.91;100103.55;104984;1253;74937;-63
2023/12/19 00:23:10;;;;;;;2.30;2.10;;;;;;;20.54;38.69;100107.29;104395;1268;69588;-65
2023/12/19 00:25:38;;;;;;;2.70;2.50;;;;;;;20.62;38.67;100105.58;104919;1267;72919;-64
2023/12/19 00:28:08;;;;;;;3.80;1.90;;;;;;;20.88;38.27;100110.00;104893;1252;62398;-65
2023/12/19 00:30:36;;;;;;;2.20;2.00;;;;;;;20.80;38.31;100110.95;105054;1256;61027;-64
2023/12/19 00:33:05;;;;;;;;;;;;;;;20.73;38.37;100111.39;104803;1253;73635;-64
2023/12/19 00:35:33;;;;;;;2.10;2.00;;;;;;;20.75;38.28;100105.51;105143;1253;69212;-63
2023/12/19 00:38:04;;;;;;;2.10;2.00;;;;;;;20.94;38.12;100097.27;105075;1255;72475;-64
2023/12/19 00:40:32;;;;;;;2.30;2.10;;;;;;;20.83;38.21;100100.61;104766;1256;64666;-64
2023/12/19 00:43:02;;;;;;;;;;;;;;;20.97;37.91;100099.89;104491;1253;60536;-63
2023/12/19 00:45:30;;;;;;;2.50;2.20;;;;;;;20.75;38.33;100095.33;105049;1256;73646;-63
2023/12/19 00:47:58;;;;;;;;;;;;;;;20.99;37.90;100093.77;104887;1256;70131;-63
2023/12/19 00:50:25;;;;;;;2.20;2.00;;;;;;;20.98;38.00;100088.77;105234;1253;72196;-63
2023/12/19 00:52:53;;;;;;;2.50;2.30;;;;;;;21.09;37.84;100090.13;107700;1253;59801;-64
2023/12/19 00:55:21;;;;;;;2.40;2.20;;;;;;;21.10;37.73;100085.98;108338;1251;59722;-64
2023/12/19 00:57:49;;;;;;;2.40;2.20;;;;;;;21.10;37.81;100083.29;108373;1250;73704;-65
2023/12/19 01:00:16;;;;;;;2.20;2.00;;;;;;;20.90;38.06;100086.11;107064;1256;69657;-64
2023/12/19 01:02:44;;;;;;;2.30;2.10;;;;;;;21.10;37.88;100080.64;108062;1250;72491;-65
2023/12/19 01:05:15;;;;;;;2.20;2.10;;;;;;;21.26;37.68;100081.67;106637;1254;60774;-63
2023/12/19 01:07:44;;;;;;;2.30;2.10;;;;;;;20.99;38.06;100080.48;104529;1268;61970;-64
2023/12/19 01:10:13;;;;;;;2.40;2.20;;;;;;;21.43;37.55;100074.24;104558;1256;73682;-64
2023/12/19 01:12:40;;;;;;;2.50;2.30;;;;;;;21.55;37.30;100070.09;105257;1256;69220;-63
2023/12/19 01:15:09;;;;;;;2.10;2.00;;;;;;;21.41;37.35;100069.29;105093;1268;72216;-64
2023/12/19 01:17:38;;;;;;;2.70;2.40;;;;;;;21.11;37.73;100067.36;104870;1257;62122;-65
2023/12/19 01:20:08;;;;;;;2.60;2.40;;;;;;;21.16;37.72;100062.16;105271;1252;60490;-64
2023/12/19 01:22:36;;;;;;;2.30;2.20;;;;;;;21.19;37.68;100061.60;104896;1259;74052;-64
2023/12/19 01:25:04;;;;;;;2.70;2.50;;;;;;;21.38;37.36;100060.58;104583;1259;69096;-64
2023/12/19 01:27:32;;;;;;;2.90;2.70;;;;;;;21.22;37.64;100060.26;104795;1252;71366;-64
2023/12/19 01:30:01;;;;;;;;;;;;;;;21.22;37.53;100061.84;108360;1250;61768;-64
2023/12/19 01:32:29;;;;;;;2.40;2.20;;;;;;;21.41;37.42;100056.80;108457;1252;59660;-65
2023/12/19 01:34:56;;;;;;;;;;;;;;;21.62;37.27;100052.07;108507;1250;73707;-65
2023/12/19 01:37:24;;;;;;;2.30;2.20;;;;;;;21.80;36.97;100050.70;108433;1253;69571;-65
2023/12/19 01:39:52;;;;;;;;;;;;;;;21.59;37.03;100048.36;108454;1253;73312;-64
2023/12/19 01:42:19;;;;;;;2.80;2.50;;;;;;;21.39;37.30;100042.98;108448;1252;61512;-65
2023/12/19 01:45:02;;;;;;;2.80;2.40;;;;;;;21.45;37.28;100038.66;108422;1253;58719;-65
2023/12/19 01:47:30;;;;;;;2.60;2.40;;;;;;;21.37;37.33;100036.92;108443;1253;73576;-65
2023/12/19 01:49:57;;;;;;;2.60;2.40;;;;;;;21.31;37.41;100036.00;108405;1250;69823;-65
2023/12/19 01:52:25;;;;;;;;;;;;;;;21.30;37.52;100033.40;108465;1250;72975;-65
2023/12/19 01:54:54;;;;;;;2.60;2.40;;;;;;;21.41;37.30;100033.20;108363;1252;60507;-65
2023/12/19 01:57:22;;;;;;;2.90;2.70;;;;;;;21.24;37.55;100033.03;108258;1256;60116;-65
2023/12/19 01:59:49;;;;;;;;;;;;;;;21.13;37.76;100032.16;108256;1250;73580;-65
2023/12/19 02:02:17;;;;;;;;;;;;;;;21.09;37.84;100029.74;108358;1252;69432;-65
2023/12/19 02:04:45;;;;;;;;;;;;;;;20.93;37.92;100028.34;108487;1250;72363;-65
2023/12/19 02:07:13;;;;;;;;;;;;;;;20.92;37.90;100027.54;108452;1253;60637;-65
2023/12/19 02:09:41;;;;;;;2.50;2.30;;;;;;;21.08;37.73;100027.16;108521;1250;59515;-67
2023/12/19 02:12:09;;;;;;;;;;;;;;;21.24;37.38;100027.46;108443;1250;74364;-64
2023/12/19 02:14:36;;;;;;;2.50;2.30;;;;;;;20.75;38.08;100021.77;108410;1251;69079;-64
2023/12/19 02:17:05;;;;;;;2.40;2.20;;;;;;;21.11;37.81;100018.00;108410;1253;72879;-65
2023/12/19 02:19:48;;;;;;;2.50;2.30;;;;;;;21.06;37.89;100017.36;108401;1253;61857;-64
2023/12/19 02:22:16;;;;;;;2.50;2.30;;;;;;;21.15;37.74;100011.29;108436;1252;59690;-64
2023/12/19 02:24:44;;;;;;;2.40;2.20;;;;;;;21.06;37.71;100007.70;108412;1250;73589;-63
2023/12/19 02:27:11;;;;;;;2.60;2.40;;;;;;;21.17;37.62;100012.16;108460;1250;67983;-64
2023/12/19 02:29:39;;;;;;;2.60;2.40;;;;;;;21.13;37.59;100011.08;108454;1253;73308;-64
2023/12/19 02:32:07;;;;;;;2.70;2.50;;;;;;;21.00;37.76;100010.56;108447;1253;60909;-63
2023/12/19 02:34:34;;;;;;;4.20;2.10;;;;;;;21.12;37.56;100006.73;108416;1255;60780;-63
2023/12/19 02:37:02;;;;;;;;;;;;;;;21.11;37.57;100006.77;108455;1256;73546;-63
2023/12/19 02:39:30;;;;;;;2.50;2.30;;;;;;;21.25;37.52;99997.08;108425;1253;69204;-63
2023/12/19 02:41:58;;;;;;;2.60;2.40;;;;;;;21.58;37.16;99997.99;108467;1251;72529;-64
2023/12/19 02:44:26;;;;;;;2.60;2.40;;;;;;;21.56;36.95;100008.16;108400;1253;61413;-63
2023/12/19 02:46:54;;;;;;;2.80;2.60;;;;;;;21.22;37.30;100003.91;108385;1252;60771;-63
2023/12/19 02:49:22;;;;;;;2.40;2.20;;;;;;;21.24;37.48;100008.21;108419;1250;73626;-63
2023/12/19 02:51:52;;;;;;;2.40;2.20;;;;;;;21.32;37.41;100005.98;108426;1251;69073;-64
2023/12/19 02:54:19;;;;;;;2.20;2.10;;;;;;;21.56;37.14;100002.60;108403;1250;71756;-63
2023/12/19 02:56:47;;;;;;;3.00;2.30;;;;;;;21.35;37.22;99996.98;108428;1252;61396;-63
2023/12/19 02:59:15;;;;;;;2.10;2.00;;;;;;;21.22;37.44;99995.19;108415;1252;60377;-60
2023/12/19 03:01:47;;;;;;;2.30;2.10;;;;;;;21.23;37.35;99998.13;108434;1252;73745;-63
2023/12/19 03:04:15;;;;;;;2.10;2.00;;;;;;;21.31;37.30;100005.88;108401;1253;69061;-63
2023/12/19 03:06:44;;;;;;;3.00;2.30;;;;;;;21.37;37.12;100010.05;108383;1252;71500;-63
2023/12/19 03:09:14;;;;;;;2.80;2.60;;;;;;;21.27;37.13;100004.60;108405;1252;62387;-63
2023/12/19 03:11:43;;;;;;;2.50;2.30;;;;;;;21.48;36.93;100006.98;108441;1250;60813;-63
2023/12/19 03:14:11;;;;;;;2.80;2.40;;;;;;;21.09;37.29;100000.85;108080;1250;73600;-63
2023/12/19 03:16:39;;;;;;;2.30;2.10;;;;;;;21.16;37.23;100003.88;108510;1250;69143;-63
2023/12/19 03:19:07;;;;;;;3.40;2.60;;;;;;;21.06;37.53;100010.20;108382;1252;72335;-64
2023/12/19 03:21:35;;;;;;;2.50;2.30;;;;;;;20.91;37.72;100008.02;108403;1252;61430;-63
2023/12/19 03:24:02;;;;;;;2.40;2.20;;;;;;;21.16;37.49;100009.23;108227;1252;60347;-64
2023/12/19 03:26:30;;;;;;;2.60;2.40;;;;;;;21.54;36.86;100012.02;108376;1252;73707;-63
2023/12/19 03:28:57;;;;;;;2.30;2.10;;;;;;;21.30;36.94;100006.34;108425;1251;70521;-63
2023/12/19 03:31:26;;;;;;;2.40;2.30;;;;;;;20.90;37.56;100003.09;108397;1253;72450;-63
2023/12/19 03:33:54;;;;;;;2.50;2.30;;;;;;;21.04;37.46;100006.09;108346;1251;62590;-64
2023/12/19 03:36:21;;;;;;;;;;;;;;;20.95;37.74;100009.46;108438;1252;58677;-63
2023/12/19 03:38:49;;;;;;;4.50;3.20;;;;;;;21.11;37.48;100007.86;108416;1250;74561;-63
2023/12/19 03:41:17;;;;;;;3.60;3.30;;;;;;;20.86;38.03;100005.41;108425;1252;68188;-63
2023/12/19 03:43:45;;;;;;;;;;;;;;;20.89;37.84;100006.02;108472;1251;71884;-63
2023/12/19 03:46:14;;;;;;;2.90;2.70;;;;;;;20.64;38.14;100002.31;108392;1250;61759;-65
2023/12/19 03:48:44;;;;;;;3.70;2.50;;;;;;;20.60;38.36;99995.37;108496;1253;60150;-60
2023/12/19 03:51:12;;;;;;;2.50;2.30;;;;;;;20.63;38.39;99989.77;108447;1252;73942;-59
2023/12/19 03:53:40;;;;;;;2.70;2.50;;;;;;;20.86;38.24;99980.65;108408;1252;69825;-63
2023/12/19 03:56:08;;;;;;;2.30;2.20;;;;;;;20.92;38.47;99976.76;108458;1250;73027;-65
2023/12/19 03:58:40;;;;;;;3.00;2.70;;;;;;;20.89;38.17;99974.19;108437;1252;61379;-65
2023/12/19 04:01:10;;;;;;;2.40;2.20;;;;;;;21.25;37.57;99970.67;108455;1252;60081;-66
2023/12/19 04:03:38;;;;;;;2.60;2.10;;;;;;;21.19;37.61;99973.13;108440;1251;74016;-63
2023/12/19 04:06:06;;;;;;;2.70;2.50;;;;;;;21.52;37.10;99968.35;108425;1250;69232;-63
2023/12/19 04:08:34;;;;;;;3.00;2.80;;;;;;;21.16;37.37;99968.63;108469;1252;72718;-63
2023/12/19 04:11:02;;;;;;;;;;;;;;;21.04;37.60;99967.09;108475;1251;61342;-63
2023/12/19 04:13:29;;;;;;;;;;;;;;;21.32;37.07;99965.73;108494;1250;59555;-63
2023/12/19 04:15:57;;;;;;;;;;;;;;;21.35;37.06;99966.83;108490;1253;74512;-63
2023/12/19 04:18:25;;;;;;;3.50;3.30;;;;;;;21.11;37.36;99963.70;108460;1250;69289;-62
2023/12/19 04:20:53;;;;;;;3.80;3.50;;;;;;;21.13;37.36;99969.73;108419;1250;72548;-63
2023/12/19 04:23:22;;;;;;;4.40;4.00;;;;;;;21.47;37.02;99968.73;108426;1250;61739;-63
2023/12/19 04:25:50;;;;;;;4.30;3.80;;;;;;;21.52;36.56;99975.80;108455;1250;60619;-64
2023/12/19 04:28:17;;;;;;;3.90;3.60;;;;;;;21.30;36.90;99979.02;108447;1250;73767;-64
2023/12/19 04:30:45;;;;;;;4.20;3.80;;;;;;;21.13;37.10;99979.85;108464;1250;70163;-65
2023/12/19 04:33:13;;;;;;;3.80;3.50;;;;;;;21.09;37.26;99976.47;108428;1253;71913;-64
2023/12/19 04:35:40;;;;;;;;;;;;;;;21.02;37.45;99973.15;108457;1253;60446;-65
2023/12/19 04:38:08;;;;;;;3.80;3.50;;;;;;;21.09;37.39;99971.64;108438;1252;59417;-65
2023/12/19 04:40:36;;;;;;;3.10;2.90;;;;;;;21.31;37.06;99968.95;108413;1250;74111;-64
2023/12/19 04:43:03;;;;;;;3.40;3.10;;;;;;;21.37;37.01;99965.41;108419;1253;70195;-64
2023/12/19 04:45:33;;;;;;;3.30;3.10;;;;;;;21.42;36.97;99963.23;108445;1251;72246;-65
2023/12/19 04:48:02;;;;;;;3.40;3.10;;;;;;;21.43;36.87;99960.84;108448;1253;61425;-65
2023/12/19 04:50:29;;;;;;;3.60;3.40;;;;;;;21.50;36.84;99957.80;108435;1253;58939;-64
2023/12/19 04:52:57;;;;;;;3.80;3.50;;;;;;;21.62;36.90;99949.52;108489;1250;72953;-65
2023/12/19 04:55:25;;;;;;;3.80;3.50;;;;;;;21.59;36.87;99952.19;108528;1250;69326;-65
2023/12/19 04:57:53;;;;;;;4.20;3.90;;;;;;;21.15;37.38;99948.32;108438;1252;73246;-65
2023/12/19 05:00:21;;;;;;;4.70;4.40;;;;;;;21.03;37.59;99939.37;108427;1253;60380;-64
2023/12/19 05:02:49;;;;;;;4.40;4.00;;;;;;;21.20;37.30;99933.14;108451;1253;60677;-65
2023/12/19 05:05:17;;;;;;;4.00;3.70;;;;;;;21.11;37.45;99929.83;108462;1251;73715;-65
2023/12/19 05:07:44;;;;;;;4.70;4.30;;;;;;;21.06;37.60;99920.57;108446;1251;70042;-65
2023/12/19 05:10:12;;;;;;;;;;;;;;;20.98;37.68;99920.73;108435;1253;72349;-65
2023/12/19 05:12:40;;;;;;;;;;;;;;;20.92;37.69;99924.40;108427;1251;60240;-65
2023/12/19 05:15:08;;;;;;;5.20;4.70;;;;;;;20.87;37.81;99921.25;108490;1250;59469;-65
2023/12/19 05:17:36;;;;;;;5.30;4.90;;;;;;;21.28;37.47;99913.96;108411;1253;73736;-65
2023/12/19 05:20:05;;;;;;;4.70;4.40;;;;;;;21.20;37.50;99911.55;108416;1250;69898;-65
2023/12/19 05:22:33;;;;;;;5.80;5.20;;;;;;;21.37;37.17;99909.86;108409;1253;72638;-65
2023/12/19 05:25:01;;;;;;;5.50;5.10;;;;;;;21.67;36.79;99910.73;108432;1250;61752;-66
2023/12/19 05:27:28;;;;;;;;;;;;;;;21.62;36.77;99911.81;108444;1251;60100;-64
2023/12/19 05:29:56;;;;;;;6.50;5.90;;;;;;;21.44;36.93;99909.64;108447;1250;73655;-65
2023/12/19 05:32:24;;;;;;;6.40;5.80;;;;;;;21.53;36.73;99907.42;108491;1251;69072;-65
2023/12/19 05:34:54;;;;;;;5.70;5.20;;;;;;;21.15;37.19;99899.68;108445;1253;72513;-65
2023/12/19 05:37:21;;;;;;;5.50;5.10;;;;;;;20.83;37.77;99890.23;108435;1250;61483;-61
2023/12/19 05:39:49;;;;;;;;;;;;;;;20.90;37.74;99893.23;108424;1252;58588;-61
2023/12/19 05:42:16;;;;;;;7.70;7.00;;;;;;;21.15;37.44;99896.27;108475;1253;72706;-60
2023/12/19 05:44:44;;;;;;;7.80;7.20;;;;;;;21.34;37.15;99885.98;108436;1253;69165;-61
2023/12/19 05:50:31;;;;;;;7.40;6.80;;;;;;;21.11;37.11;99883.42;101620;1291;602211;-68
2023/12/19 05:52:59;;;;;;;7.90;7.10;;;;;;;20.84;37.43;99886.54;104427;1266;61507;-67
2023/12/19 05:55:27;;;;;;;8.40;7.60;;;;;;;20.86;37.42;99896.23;104170;1268;59378;-69
2023/12/19 05:57:54;;;;;;;9.60;8.70;;;;;;;20.92;37.26;99895.50;103763;1266;72479;-68
2023/12/19 06:00:22;;;;;;;9.80;8.90;;;;;;;21.23;36.68;99893.89;103928;1269;69344;-63
2023/12/19 06:02:50;;;;;;;10.70;9.70;;;;;;;20.94;36.91;99898.90;103835;1271;72923;-69
2023/12/19 06:05:18;;;;;;;;;;;;;;;20.72;37.22;99898.77;104125;1267;128594;-61
2023/12/19 06:07:46;;;;;;;10.00;9.10;;;;;;;21.04;36.78;99905.75;104227;1263;59442;-61
2023/12/19 06:10:14;;;;;;;11.30;10.30;;;;;;;21.11;36.60;99904.14;104067;1267;71924;-61
2023/12/19 06:12:41;;;;;;;;;;;;;;;20.70;36.97;99899.09;104214;1266;69065;-60
2023/12/19 06:15:13;;;;;;;11.90;10.70;;;;;;;20.84;36.81;99889.73;104733;1256;72426;-61
2023/12/19 06:17:45;;;;;;;12.20;11.00;;;;;;;20.62;37.12;99891.71;104886;1253;60689;-61
2023/12/19 06:20:13;;;;;;;12.30;11.10;;;;;;;20.76;36.95;99888.87;104818;1256;59905;-60
2023/12/19 06:22:43;;;;;;;12.80;11.60;;;;;;;20.50;37.38;99889.79;105613;1253;73200;-60
2023/12/19 06:25:11;;;;;;;12.30;11.10;;;;;;;20.59;37.14;99892.00;104817;1256;70109;-61
2023/12/19 06:27:42;;;;;;;12.70;11.10;;;;;;;20.52;37.11;99893.39;105010;1256;71227;-61
2023/12/19 06:30:10;;;;;;;11.50;9.90;;;;;;;20.65;37.09;99893.27;105222;1253;59699;-63
2023/12/19 06:32:53;;;;;;;12.00;10.80;;;;;;;20.45;37.35;99881.45;104939;1253;59755;-62
2023/12/19 06:35:23;;;;;;;12.60;11.40;;;;;;;20.33;37.61;99880.84;104892;1250;72887;-62
2023/12/19 06:37:51;;;;;;;13.90;12.30;;;;;;;20.64;37.25;99874.27;105103;1257;69206;-61
2023/12/19 06:40:19;;;;;;;13.10;11.70;;;;;;;20.61;37.24;99876.33;104824;1252;71369;-62
2023/12/19 06:42:47;;;;;;;12.10;10.80;;;;;;;20.60;37.07;99878.02;104781;1254;60712;-61
2023/12/19 06:45:16;;;;;;;11.20;10.10;;;;;;;20.76;36.84;99877.98;104540;1256;60205;-62
2023/12/19 06:47:45;;;;;;;11.90;10.70;;;;;;;20.81;36.83;99878.98;104687;1258;72827;-61
2023/12/19 06:50:14;;;;;;;14.00;11.60;;;;;;;20.58;36.98;99882.98;104541;1254;68804;-62
2023/12/19 06:55:25;;;;;;;12.10;11.00;;;;;;;19.97;39.96;99877.60;101740;1289;601688;-60
2023/12/19 06:57:55;;;;;;;13.30;12.00;;;;;;;21.77;35.69;99864.91;104090;1266;61547;-59
2023/12/19 07:00:23;;;;;;;13.00;11.70;;;;;;;21.85;35.45;99857.86;104379;1263;60093;-59
2023/12/19 07:02:50;;;;;;;;;;;;;;;21.84;35.41;99850.44;104377;1263;73215;-59
2023/12/19 07:05:18;;;;;;;12.50;11.00;;;;;;;21.69;35.66;99852.23;105321;1262;70015;-59
2023/12/19 07:07:51;;;;;;;11.30;10.20;;;;;;;21.52;35.99;99844.60;104506;1263;73482;-60
2023/12/19 07:10:19;;;;;;;13.40;12.10;;;;;;;21.29;36.23;99847.23;104311;1262;61155;-60
2023/12/19 07:12:47;;;;;;;12.70;11.40;;;;;;;21.27;36.23;99844.51;104166;1260;59692;-60
2023/12/19 07:15:14;;;;;;;;;;;;;;;21.16;36.39;99846.34;104500;1259;70831;-61
2023/12/19 07:17:43;;;;;;;12.90;11.40;;;;;;;20.93;36.69;99850.88;104555;1260;70118;-60
2023/12/19 07:20:11;;;;;;;11.30;10.20;;;;;;;20.60;37.19;99851.96;104100;1261;72482;-61
2023/12/19 07:22:40;;;;;;;10.90;9.70;;;;;;;20.53;37.49;99856.13;104204;1260;59720;-60
2023/12/19 07:25:09;;;;;;;11.80;10.60;;;;;;;20.93;37.11;99848.95;104509;1257;59761;-59
2023/12/19 07:27:37;;;;;;;11.30;10.10;;;;;;;20.81;37.13;99850.65;104321;1260;71665;-60
2023/12/19 07:30:09;;;;;;;11.10;10.10;;;;;;;20.49;37.72;99852.86;104444;1259;69946;-59
2023/12/19 07:32:36;;;;;;;11.40;10.20;;;;;;;20.45;37.98;99852.84;105113;1257;72461;-60
2023/12/19 07:35:08;;;;;;;;;;;;;;;20.25;38.11;99854.80;105017;1257;61493;-60
2023/12/19 07:37:39;;;;;;;10.80;9.70;;;;;;;20.43;37.99;99852.81;104492;1255;59727;-60
2023/12/19 07:40:10;;;;;;;11.00;9.90;;;;;;;20.55;37.72;99841.35;104344;1260;72831;-60
2023/12/19 07:42:40;;;;;;;10.60;9.60;;;;;;;20.71;37.40;99833.77;104754;1254;69756;-60
2023/12/19 07:45:08;;;;;;;13.60;9.90;;;;;;;20.47;37.81;99826.33;104357;1254;72923;-60
2023/12/19 07:47:36;;;;;;;12.20;10.90;;;;;;;20.49;37.85;99841.48;104686;1257;61623;-60
2023/12/19 07:50:06;;;;;;;11.30;10.30;;;;;;;20.53;37.74;99847.75;104721;1257;60658;-60
2023/12/19 07:52:33;;;;;;;11.30;10.20;;;;;;;20.58;37.64;99847.88;104800;1260;73277;-60
2023/12/19 07:55:04;;;;;;;11.00;9.90;;;;;;;20.55;37.72;99840.84;104919;1257;69758;-60
2023/12/19 07:57:32;;;;;;;10.90;9.80;;;;;;;20.44;37.99;99822.69;104828;1257;72524;-60
2023/12/19 08:00:00;;;;;;;10.70;9.60;;;;;;;20.49;37.96;99818.81;104600;1254;60811;-60
2023/12/19 08:02:28;;;;;;;11.90;10.70;;;;;;;20.64;37.86;99811.60;104551;1256;60098;-60
2023/12/19 08:04:56;;;;;;;;;;;;;;;20.80;37.70;99801.02;104765;1257;73716;-59
2023/12/19 08:07:25;;;;;;;11.20;9.90;;;;;;;21.22;37.22;99798.05;104883;1257;69231;-59
2023/12/19 08:09:53;;;;;;;11.50;10.40;;;;;;;21.44;36.73;99785.30;104947;1260;72368;-59
2023/12/19 08:12:21;;;;;;;12.00;10.80;;;;;;;21.21;37.10;99777.11;104314;1260;61037;-60
2023/12/19 08:14:49;;;;;;;;;;;;;;;21.24;36.97;99777.77;104612;1257;59747;-60
2023/12/19 08:17:18;;;;;;;12.00;10.30;;;;;;;20.66;37.85;99785.42;104885;1257;72850;-60
2023/12/19 08:19:46;;;;;;;11.20;10.10;;;;;;;20.29;38.40;99779.71;104918;1256;68654;-60
2023/12/19 08:22:14;;;;;;;11.50;9.70;;;;;;;20.50;38.39;99778.35;104627;1260;72388;-60
2023/12/19 08:24:42;;;;;;;12.80;10.00;;;;;;;20.51;38.44;99766.48;104317;1260;60599;-59
2023/12/19 08:27:10;;;;;;;;;;;;;;;20.60;38.30;99771.33;107960;1254;59692;-61
2023/12/19 08:29:37;;;;;;;10.80;9.60;;;;;;;20.67;38.22;99767.73;107919;1256;73117;-61
2023/12/19 08:32:05;;;;;;;11.30;10.00;;;;;;;20.77;38.11;99763.73;107921;1257;69467;-61
2023/12/19 08:34:33;;;;;;;11.10;10.00;;;;;;;20.60;38.22;99764.93;107976;1256;71229;-62
2023/12/19 08:37:01;;;;;;;;;;;;;;;20.72;38.42;99759.61;108006;1254;60604;-60
2023/12/19 08:39:28;;;;;;;;;;;;;;;20.71;38.48;99758.48;108004;1257;59490;-60
2023/12/19 08:41:56;;;;;;;;;;;;;;;20.65;38.59;99756.14;107947;1256;72909;-65
2023/12/19 08:44:25;;;;;;;10.40;9.40;;;;;;;20.47;38.82;99751.70;108174;1256;68519;-67
2023/12/19 08:46:53;;;;;;;11.60;10.40;;;;;;;20.81;38.50;99750.12;107973;1256;72430;-66
2023/12/19 08:49:21;;;;;;;10.90;9.80;;;;;;;20.51;38.98;99751.17;107898;1254;61433;-67
2023/12/19 08:51:49;;;;;;;11.00;10.00;;;;;;;20.69;38.61;99749.94;108009;1256;60051;-65
2023/12/19 08:54:17;;;;;;;11.70;10.50;;;;;;;20.65;38.79;99746.16;108015;1256;73763;-65
2023/12/19 08:56:45;;;;;;;10.90;9.80;;;;;;;20.84;38.31;99742.66;108018;1254;69750;-65
2023/12/19 08:59:13;;;;;;;12.60;10.70;;;;;;;20.69;38.67;99728.52;107981;1255;73198;-65
2023/12/19 09:01:41;;;;;;;12.00;10.80;;;;;;;20.59;38.95;99715.12;107931;1257;62005;-65
2023/12/19 09:04:09;;;;;;;12.50;11.20;;;;;;;20.73;38.73;99701.88;107994;1256;59149;-65
2023/12/19 09:06:37;;;;;;;11.30;10.10;;;;;;;20.80;38.73;99702.84;108024;1254;73702;-65
2023/12/19 09:09:05;;;;;;;12.80;11.40;;;;;;;20.75;38.62;99704.16;108035;1256;68557;-65
2023/12/19 09:11:33;;;;;;;13.50;11.50;;;;;;;20.94;38.46;99699.19;107925;1254;73097;-64
2023/12/19 09:14:01;;;;;;;11.20;10.10;;;;;;;21.31;37.91;99699.05;107941;1254;61614;-64
2023/12/19 09:16:29;;;;;;;10.80;9.80;;;;;;;21.13;38.03;99702.17;107954;1254;59675;-64
2023/12/19 09:18:57;;;;;;;11.30;10.20;;;;;;;21.13;38.17;99701.34;107977;1255;72175;-63
2023/12/19 09:21:26;;;;;;;;;;;;;;;21.55;37.61;99706.15;108013;1255;69952;-64
2023/12/19 09:23:54;;;;;;;13.50;11.90;;;;;;;21.54;37.43;99707.29;107964;1254;73335;-64
2023/12/19 09:26:21;;;;;;;12.80;11.30;;;;;;;21.35;37.51;99706.04;108168;1254;62720;-64
2023/12/19 09:28:49;;;;;;;;;;;;;;;21.39;37.63;99708.16;107968;1254;58698;-63
2023/12/19 09:31:19;;;;;;;13.10;11.70;;;;;;;21.17;37.85;99709.88;108003;1256;73036;-64
2023/12/19 09:33:48;;;;;;;14.80;12.20;;;;;;;20.88;38.32;99701.87;108110;1254;69044;-65
2023/12/19 09:36:21;;;;;;;13.10;11.80;;;;;;;20.87;38.43;99702.15;108087;1256;72412;-64
2023/12/19 09:38:48;;;;;;;13.10;11.70;;;;;;;20.71;38.84;99699.54;108041;1254;61354;-64
2023/12/19 09:41:17;;;;;;;12.00;10.80;;;;;;;20.44;39.17;99697.35;107993;1254;58672;-64
2023/12/19 09:43:47;;;;;;;13.20;11.70;;;;;;;20.29;39.51;99690.73;107926;1254;72000;-64
2023/12/19 09:46:14;;;;;;;13.00;11.60;;;;;;;19.98;39.98;99697.69;108014;1254;69934;-62
2023/12/19 09:48:43;;;;;;;13.90;12.30;;;;;;;19.96;40.24;99694.33;107917;1256;72935;-62
2023/12/19 09:51:26;;;;;;;13.80;12.30;;;;;;;20.26;39.66;99683.48;108135;1254;62912;-61
2023/12/19 09:53:55;;;;;;;15.00;12.20;;;;;;;19.96;40.11;99678.30;107793;1254;59800;-61
2023/12/19 09:56:22;;;;;;;14.00;12.50;;;;;;;20.06;40.06;99673.75;107702;1254;73567;-61
2023/12/19 09:58:50;;;;;;;15.00;12.60;;;;;;;20.03;40.10;99669.19;107646;1257;69077;-61
2023/12/19 10:01:18;;;;;;;;;;;;;;;20.01;40.35;99659.39;107746;1254;72818;-61
2023/12/19 10:03:49;;;;;;;15.30;13.20;;;;;;;19.61;41.06;99654.17;107902;1256;61763;-63
2023/12/19 10:06:17;;;;;;;15.10;13.50;;;;;;;20.34;40.04;99652.90;107913;1254;60361;-61
2023/12/19 10:08:45;;;;;;;15.20;13.50;;;;;;;20.52;39.61;99644.98;108096;1257;73066;-61
2023/12/19 10:11:21;;;;;;;;;;;;;;;20.11;40.14;99640.74;107664;1254;69116;-61
2023/12/19 10:13:49;;;;;;;16.50;13.60;;;;;;;20.08;40.59;99622.30;108050;1254;72567;-61
2023/12/19 10:16:19;;;;;;;14.60;12.70;;;;;;;20.29;40.27;99605.97;107978;1256;60698;-62
2023/12/19 10:19:01;;;;;;;14.30;12.80;;;;;;;20.77;39.61;99603.02;108022;1257;58871;-59
2023/12/19 10:21:31;;;;;;;14.40;12.70;;;;;;;20.61;39.69;99604.21;107957;1254;72049;-59
2023/12/19 10:24:08;;;;;;;14.20;12.80;;;;;;;20.16;40.40;99602.11;107924;1254;69214;-59
2023/12/19 10:26:36;;;;;;;13.40;12.00;;;;;;;20.18;40.59;99604.44;108033;1256;72815;-59
2023/12/19 10:29:05;;;;;;;;;;;;;;;20.32;40.55;99604.33;107946;1255;60796;-59
2023/12/19 10:31:33;;;;;;;13.80;11.50;;;;;;;20.92;39.74;99588.21;107821;1256;60596;-60
2023/12/19 10:34:01;;;;;;;12.80;11.50;;;;;;;21.14;39.20;99574.15;108007;1256;72738;-59
2023/12/19 10:36:30;;;;;;;13.30;11.50;;;;;;;20.65;39.76;99560.97;107630;1254;68148;-59
2023/12/19 10:38:59;;;;;;;25.80;19.10;;;;;;;20.36;40.66;99558.41;107865;1254;72339;-59
2023/12/19 10:41:31;;;;;;;15.70;13.40;;;;;;;20.47;40.55;99551.25;107977;1256;61400;-59
2023/12/19 10:44:00;;;;;;;15.30;12.30;;;;;;;20.73;40.23;99546.05;107996;1256;59001;-59
2023/12/19 10:46:31;;;;;;;13.50;11.40;;;;;;;20.67;40.24;99547.78;108013;1255;73731;-59
2023/12/19 10:49:00;;;;;;;13.00;11.70;;;;;;;20.73;40.04;99543.65;108117;1254;69304;-59
2023/12/19 10:51:41;;;;;;;14.60;13.10;;;;;;;20.85;39.96;99537.13;108014;1256;71689;-60
2023/12/19 10:54:10;;;;;;;14.50;13.00;;;;;;;20.67;40.13;99543.72;107952;1257;62499;-61
2023/12/19 10:56:49;;;;;;;14.80;11.80;;;;;;;20.66;40.11;99539.67;107973;1255;59592;-60
2023/12/19 10:59:23;;;;;;;14.30;12.10;;;;;;;20.62;40.35;99536.83;108191;1255;72883;-60
2023/12/19 11:01:51;;;;;;;13.70;12.10;;;;;;;20.43;40.64;99531.29;107903;1257;68080;-59
2023/12/19 11:04:23;;;;;;;13.00;11.70;;;;;;;20.53;40.55;99528.48;107928;1256;73603;-59
2023/12/19 11:06:55;;;;;;;12.00;10.90;;;;;;;20.86;39.85;99539.97;108233;1253;61418;-60
2023/12/19 11:09:25;;;;;;;15.10;13.50;;;;;;;20.53;40.54;99540.05;108181;1254;59664;-59
2023/12/19 11:11:52;;;;;;;13.60;11.90;;;;;;;20.45;40.38;99529.89;107724;1254;74255;-60
2023/12/19 11:14:24;;;;;;;15.10;12.60;;;;;;;20.33;40.56;99525.08;108145;1254;69630;-68
2023/12/19 11:17:25;;;;;;;17.50;13.20;;;;;;;20.68;40.04;99530.61;108235;1253;72477;-64
2023/12/19 11:20:04;;;;;;;15.40;13.50;;;;;;;20.75;39.91;99525.36;108029;1254;61624;-66
2023/12/19 11:22:36;;;;;;;16.00;13.40;;;;;;;20.63;40.01;99522.66;107900;1253;60005;-63
2023/12/19 11:25:47;;;;;;;15.10;13.20;;;;;;;20.71;40.08;99519.84;108477;1251;72798;-66
2023/12/19 11:28:18;;;;;;;19.20;14.60;;;;;;;20.58;40.42;99521.11;108239;1251;70102;-64
2023/12/19 11:30:46;;;;;;;16.90;13.50;;;;;;;20.54;40.29;99520.69;108441;1252;72760;-65
2023/12/19 11:33:14;;;;;;;;;;;;;;;21.18;39.53;99521.92;108488;1251;60742;-65
2023/12/19 11:35:42;;;;;;;16.80;13.20;;;;;;;21.46;39.00;99514.44;108464;1251;59765;-64
2023/12/19 11:38:13;;;;;;;;;;;;;;;21.45;38.92;99504.19;108180;1251;73716;-64
2023/12/19 11:40:50;;;;;;;17.80;14.30;;;;;;;21.36;38.99;99505.39;108392;1252;68684;-64